G3 Marquis — XJBO — position and weather

sailwx.info

Track history (hours):
 
Tides and Currents Weather Stations Pressure Air Temp Water Temp Dewpoint Dewpoint Depression Visibility Wind Speed Wind Dir Waves Ship Positions

G3 Marquis

Last reported at 2018-Jun-24 11:00 UTC. Time now 2018-Jun-25 19:16 UTC.
Position N 44°06' W 082°18'.

Length 226 m; draft 8 m.

Type: Cargo ship. MMSI: 316004370.

Wind at 15 knots

Barometer 1007.0 mb
Air temperature 12.0 ° C
Visibility: greater than 1.1 NM

Date/timePositionNaut miles runAvg speedWind from/ knotsBaromVisibWave heightAir tempDewpointWater temp
2018-Jun-24 11:00N 44°06' W 082°18'9113.9 1007.0 1.1 12.0
2018-Jun-24 04:27N 45°28' W 083°15'613.8
2018-Jun-24 04:00N 45°32' W 083°21'713.8
2018-Jun-24 03:30N 45°37' W 083°28'1113.6
2018-Jun-24 02:43N 45°45' W 083°38'613.5
2018-Jun-24 02:17N 45°49' W 083°44'413.6
2018-Jun-24 02:00N 45°52' W 083°48'713.2
2018-Jun-24 01:30N 45°57' W 083°54'611.9
2018-Jun-24 01:00N 46°03' W 083°57'1210.5
2018-Jun-23 23:52N 46°12' W 084°08'  
2018-Jun-20 07:56N 46°08' W 084°01'1110.1
2018-Jun-20 06:54N 45°59' W 083°53'1813.1
2018-Jun-20 05:31N 45°43' W 083°40'013.7
2018-Jun-20 05:29N 45°43' W 083°40'713.7
2018-Jun-20 05:00N 45°38' W 083°35'713.6
2018-Jun-20 04:29N 45°32' W 083°29'713.5
2018-Jun-20 03:59N 45°26' W 083°23'713.5
2018-Jun-20 03:30N 45°21' W 083°18'  
2018-Jun-17 04:46N 45°06' W 074°29'2 8.9
2018-Jun-17 04:31N 45°07' W 074°27'711.0
2018-Jun-17 03:50N 45°12' W 074°18'411.2
2018-Jun-17 03:30N 45°14' W 074°14'5 9.5
2018-Jun-17 03:00N 45°14' W 074°07'4 7.8
2018-Jun-17 02:30N 45°14' W 074°02'4 8.5
2018-Jun-17 02:00N 45°16' W 073°57'2 4.6
2018-Jun-17 01:31N 45°18' W 073°56'1 1.2
2018-Jun-17 01:01N 45°19' W 073°55'0 0.7
2018-Jun-17 00:31N 45°19' W 073°55'2 4.2
2018-Jun-17 00:00N 45°21' W 073°53'611.3
2018-Jun-16 23:30N 45°24' W 073°47'4 8.0
2018-Jun-16 23:00N 45°25' W 073°41'3 5.7
2018-Jun-16 22:30N 45°24' W 073°37'1 3.0
2018-Jun-16 22:01N 45°24' W 073°35'1 1.8
2018-Jun-16 21:30N 45°24' W 073°34'1 1.1
2018-Jun-16 21:00N 45°24' W 073°33'2 4.9
2018-Jun-16 20:30N 45°26' W 073°30'3 6.1
2018-Jun-16 20:00N 45°29' W 073°31'1 1.6
2018-Jun-16 19:30N 45°30' W 073°31'11 6.1
2018-Jun-16 17:39N 45°41' W 073°27'210.3
2018-Jun-16 17:26N 45°43' W 073°26'410.4
2018-Jun-16 17:00N 45°46' W 073°22'5 9.4
2018-Jun-16 16:30N 45°50' W 073°18'0 1.0
2018-Jun-16 16:00N 45°50' W 073°17'0 0.0
2018-Jun-16 15:30N 45°50' W 073°17'0 0.0
2018-Jun-16 15:00N 45°50' W 073°17'0 0.0
2018-Jun-16 14:30N 45°50' W 073°17'0 0.0
2018-Jun-16 14:00N 45°50' W 073°17'0 0.0
2018-Jun-16 13:30N 45°50' W 073°17'0 0.0
2018-Jun-16 13:00N 45°50' W 073°17'0 0.0
2018-Jun-16 12:30N 45°50' W 073°17'0 0.0
2018-Jun-16 12:00N 45°50' W 073°17'0 0.0
2018-Jun-16 11:30N 45°50' W 073°17'0 0.0
2018-Jun-16 11:00N 45°50' W 073°17'0 0.0
2018-Jun-16 10:30N 45°50' W 073°17'0 0.0
2018-Jun-16 10:00N 45°50' W 073°17'0 0.0
2018-Jun-16 09:30N 45°50' W 073°17'0 0.0
2018-Jun-16 09:00N 45°50' W 073°17'0 0.0
2018-Jun-16 08:30N 45°50' W 073°17'0 0.0
2018-Jun-16 08:00N 45°50' W 073°17'0 0.0
2018-Jun-16 07:30N 45°50' W 073°17'0 0.0
2018-Jun-16 07:00N 45°50' W 073°17'0 0.0
2018-Jun-16 06:30N 45°50' W 073°17'0 0.0
2018-Jun-16 06:00N 45°50' W 073°17'0 0.0
2018-Jun-16 05:30N 45°50' W 073°17'0 0.0
2018-Jun-16 05:00N 45°50' W 073°17'0 0.0
2018-Jun-16 04:30N 45°50' W 073°17'0 0.0
2018-Jun-16 04:00N 45°50' W 073°17'0 0.0
2018-Jun-16 03:30N 45°50' W 073°17'0 0.0
2018-Jun-16 03:00N 45°50' W 073°17'0 0.0
2018-Jun-16 02:30N 45°50' W 073°17'0 0.0
2018-Jun-16 02:00N 45°50' W 073°17'0 0.0
2018-Jun-16 01:30N 45°50' W 073°17'0 0.0
2018-Jun-16 01:00N 45°50' W 073°17'0 0.0
2018-Jun-16 00:30N 45°50' W 073°17'0 0.0
2018-Jun-16 00:00N 45°50' W 073°17'0 0.0
2018-Jun-15 23:30N 45°50' W 073°17'0 0.0
2018-Jun-15 23:00N 45°50' W 073°17'0 0.0
2018-Jun-15 22:30N 45°50' W 073°17'0 0.0
2018-Jun-15 22:00N 45°50' W 073°17'0 0.0
2018-Jun-15 21:30N 45°50' W 073°17'0 0.0
2018-Jun-15 21:00N 45°50' W 073°17'0 0.0
2018-Jun-15 20:30N 45°50' W 073°17'0 0.0
2018-Jun-15 20:00N 45°50' W 073°17'0 0.0
2018-Jun-15 19:30N 45°50' W 073°17'0 0.0
2018-Jun-15 19:00N 45°50' W 073°17'0 0.0
2018-Jun-15 18:30N 45°50' W 073°17'0 0.0
2018-Jun-15 18:00N 45°50' W 073°17'0 0.0
2018-Jun-15 17:30N 45°50' W 073°17'0 0.0
2018-Jun-15 17:00N 45°50' W 073°17'0 0.0
2018-Jun-15 16:30N 45°50' W 073°17'0 0.0
2018-Jun-15 16:00N 45°50' W 073°17'0 0.0
2018-Jun-15 15:30N 45°50' W 073°17'0 0.0
2018-Jun-15 15:00N 45°50' W 073°17'0 0.0
2018-Jun-15 14:30N 45°50' W 073°17'0 0.0
2018-Jun-15 14:00N 45°50' W 073°17'0 0.0
2018-Jun-15 13:30N 45°50' W 073°17'0 0.0
2018-Jun-15 13:00N 45°50' W 073°17'0 0.0
2018-Jun-15 12:30N 45°50' W 073°17'0 0.0
2018-Jun-15 12:00N 45°50' W 073°17'0 0.0
2018-Jun-15 11:30N 45°50' W 073°17'0 0.0
2018-Jun-15 11:00N 45°50' W 073°17'0 0.0
2018-Jun-15 10:30N 45°50' W 073°17'0 0.0
2018-Jun-15 10:00N 45°50' W 073°17'0 0.0
2018-Jun-15 09:30N 45°50' W 073°17'0 0.0
2018-Jun-15 09:00N 45°50' W 073°17'0 0.0
2018-Jun-15 08:30N 45°50' W 073°17'0 0.0
2018-Jun-15 08:00N 45°50' W 073°17'0 0.0
2018-Jun-15 07:30N 45°50' W 073°17'0 0.0
2018-Jun-15 07:00N 45°50' W 073°17'0 0.0
2018-Jun-15 06:30N 45°50' W 073°17'0 0.0
2018-Jun-15 06:00N 45°50' W 073°17'0 0.0
2018-Jun-15 05:30N 45°50' W 073°17'0 0.0
2018-Jun-15 05:00N 45°50' W 073°17'0 0.0
2018-Jun-15 04:30N 45°50' W 073°17'0 0.0
2018-Jun-15 04:00N 45°50' W 073°17'0 0.0
2018-Jun-15 03:30N 45°50' W 073°17'0 0.0
2018-Jun-15 03:00N 45°50' W 073°17'0 0.0
2018-Jun-15 02:30N 45°50' W 073°17'0 0.0
2018-Jun-15 02:00N 45°50' W 073°17'0 0.0
2018-Jun-15 01:30N 45°50' W 073°17'0 0.0
2018-Jun-15 01:00N 45°50' W 073°17'0 0.0
2018-Jun-15 00:30N 45°50' W 073°17'0 0.0
2018-Jun-15 00:00N 45°50' W 073°17'0 0.0
2018-Jun-14 23:30N 45°50' W 073°17'0 0.0
2018-Jun-14 23:00N 45°50' W 073°17'0 0.0
2018-Jun-14 22:30N 45°50' W 073°17'0 0.0
2018-Jun-14 22:00N 45°50' W 073°17'0 0.0
2018-Jun-14 21:30N 45°50' W 073°17'0 0.0
2018-Jun-14 21:00N 45°50' W 073°17'0 0.0
2018-Jun-14 20:30N 45°50' W 073°17'0 0.0
2018-Jun-14 20:00N 45°50' W 073°17'0 0.0
2018-Jun-14 19:30N 45°50' W 073°17'0 0.0
2018-Jun-14 19:00N 45°50' W 073°17'0 0.0
2018-Jun-14 18:30N 45°50' W 073°17'0 0.0
2018-Jun-14 18:00N 45°50' W 073°17'0 0.0
2018-Jun-14 17:30N 45°50' W 073°17'0 0.0
2018-Jun-14 17:00N 45°50' W 073°17'0 0.0
2018-Jun-14 16:30N 45°50' W 073°17'0 0.0
2018-Jun-14 16:00N 45°50' W 073°17'0 0.0
2018-Jun-14 15:30N 45°50' W 073°17'0 0.0
2018-Jun-14 15:00N 45°50' W 073°17'0 0.0
2018-Jun-14 14:30N 45°50' W 073°17'0 0.0
2018-Jun-14 14:00N 45°50' W 073°17'0 0.0
2018-Jun-14 13:30N 45°50' W 073°17'0 0.0
2018-Jun-14 13:00N 45°50' W 073°17'0 0.0
2018-Jun-14 12:30N 45°50' W 073°17'0 0.0
2018-Jun-14 12:00N 45°50' W 073°17'0 0.0
2018-Jun-14 11:30N 45°50' W 073°17'0 0.0
2018-Jun-14 11:00N 45°50' W 073°17'  
Track history (hours):
 
Tides and Currents Weather Stations Pressure Air Temp Water Temp Dewpoint Dewpoint Depression Visibility Wind Speed Wind Dir Waves Ship Positions

G3 Marquis

Last reported at 2018-Jun-24 11:00 UTC. Time now 2018-Jun-25 19:16 UTC.
Position N 44°06' W 082°18'.

Length 226 m; draft 8 m.

Type: Cargo ship. MMSI: 316004370.

Wind at 15 knots

Barometer 1007.0 mb
Air temperature 12.0 ° C
Visibility: greater than 1.1 NM

Date/timePositionNaut miles runAvg speedWind from/ knotsBaromVisibWave heightAir tempDewpointWater temp
2018-Jun-24 11:00N 44°06' W 082°18'9113.9 1007.0 1.1 12.0
2018-Jun-24 04:27N 45°28' W 083°15'613.8
2018-Jun-24 04:00N 45°32' W 083°21'713.8
2018-Jun-24 03:30N 45°37' W 083°28'1113.6
2018-Jun-24 02:43N 45°45' W 083°38'613.5
2018-Jun-24 02:17N 45°49' W 083°44'413.6
2018-Jun-24 02:00N 45°52' W 083°48'713.2
2018-Jun-24 01:30N 45°57' W 083°54'611.9
2018-Jun-24 01:00N 46°03' W 083°57'1210.5
2018-Jun-23 23:52N 46°12' W 084°08'  
2018-Jun-20 07:56N 46°08' W 084°01'1110.1
2018-Jun-20 06:54N 45°59' W 083°53'1813.1
2018-Jun-20 05:31N 45°43' W 083°40'013.7
2018-Jun-20 05:29N 45°43' W 083°40'713.7
2018-Jun-20 05:00N 45°38' W 083°35'713.6
2018-Jun-20 04:29N 45°32' W 083°29'713.5
2018-Jun-20 03:59N 45°26' W 083°23'713.5
2018-Jun-20 03:30N 45°21' W 083°18'  
2018-Jun-17 04:46N 45°06' W 074°29'2 8.9
2018-Jun-17 04:31N 45°07' W 074°27'711.0
2018-Jun-17 03:50N 45°12' W 074°18'411.2
2018-Jun-17 03:30N 45°14' W 074°14'5 9.5
2018-Jun-17 03:00N 45°14' W 074°07'4 7.8
2018-Jun-17 02:30N 45°14' W 074°02'4 8.5
2018-Jun-17 02:00N 45°16' W 073°57'2 4.6
2018-Jun-17 01:31N 45°18' W 073°56'1 1.2
2018-Jun-17 01:01N 45°19' W 073°55'0 0.7
2018-Jun-17 00:31N 45°19' W 073°55'2 4.2
2018-Jun-17 00:00N 45°21' W 073°53'611.3
2018-Jun-16 23:30N 45°24' W 073°47'4 8.0
2018-Jun-16 23:00N 45°25' W 073°41'3 5.7
2018-Jun-16 22:30N 45°24' W 073°37'1 3.0
2018-Jun-16 22:01N 45°24' W 073°35'1 1.8
2018-Jun-16 21:30N 45°24' W 073°34'1 1.1
2018-Jun-16 21:00N 45°24' W 073°33'2 4.9
2018-Jun-16 20:30N 45°26' W 073°30'3 6.1
2018-Jun-16 20:00N 45°29' W 073°31'1 1.6
2018-Jun-16 19:30N 45°30' W 073°31'11 6.1
2018-Jun-16 17:39N 45°41' W 073°27'210.3
2018-Jun-16 17:26N 45°43' W 073°26'410.4
2018-Jun-16 17:00N 45°46' W 073°22'5 9.4
2018-Jun-16 16:30N 45°50' W 073°18'0 1.0
2018-Jun-16 16:00N 45°50' W 073°17'0 0.0
2018-Jun-16 15:30N 45°50' W 073°17'0 0.0
2018-Jun-16 15:00N 45°50' W 073°17'0 0.0
2018-Jun-16 14:30N 45°50' W 073°17'0 0.0
2018-Jun-16 14:00N 45°50' W 073°17'0 0.0
2018-Jun-16 13:30N 45°50' W 073°17'0 0.0
2018-Jun-16 13:00N 45°50' W 073°17'0 0.0
2018-Jun-16 12:30N 45°50' W 073°17'0 0.0
2018-Jun-16 12:00N 45°50' W 073°17'0 0.0
2018-Jun-16 11:30N 45°50' W 073°17'0 0.0
2018-Jun-16 11:00N 45°50' W 073°17'0 0.0
2018-Jun-16 10:30N 45°50' W 073°17'0 0.0
2018-Jun-16 10:00N 45°50' W 073°17'0 0.0
2018-Jun-16 09:30N 45°50' W 073°17'0 0.0
2018-Jun-16 09:00N 45°50' W 073°17'0 0.0
2018-Jun-16 08:30N 45°50' W 073°17'0 0.0
2018-Jun-16 08:00N 45°50' W 073°17'0 0.0
2018-Jun-16 07:30N 45°50' W 073°17'0 0.0
2018-Jun-16 07:00N 45°50' W 073°17'0 0.0
2018-Jun-16 06:30N 45°50' W 073°17'0 0.0
2018-Jun-16 06:00N 45°50' W 073°17'0 0.0
2018-Jun-16 05:30N 45°50' W 073°17'0 0.0
2018-Jun-16 05:00N 45°50' W 073°17'0 0.0
2018-Jun-16 04:30N 45°50' W 073°17'0 0.0
2018-Jun-16 04:00N 45°50' W 073°17'0 0.0
2018-Jun-16 03:30N 45°50' W 073°17'0 0.0
2018-Jun-16 03:00N 45°50' W 073°17'0 0.0
2018-Jun-16 02:30N 45°50' W 073°17'0 0.0
2018-Jun-16 02:00N 45°50' W 073°17'0 0.0
2018-Jun-16 01:30N 45°50' W 073°17'0 0.0
2018-Jun-16 01:00N 45°50' W 073°17'0 0.0
2018-Jun-16 00:30N 45°50' W 073°17'0 0.0
2018-Jun-16 00:00N 45°50' W 073°17'0 0.0
2018-Jun-15 23:30N 45°50' W 073°17'0 0.0
2018-Jun-15 23:00N 45°50' W 073°17'0 0.0
2018-Jun-15 22:30N 45°50' W 073°17'0 0.0
2018-Jun-15 22:00N 45°50' W 073°17'0 0.0
2018-Jun-15 21:30N 45°50' W 073°17'0 0.0
2018-Jun-15 21:00N 45°50' W 073°17'0 0.0
2018-Jun-15 20:30N 45°50' W 073°17'0 0.0
2018-Jun-15 20:00N 45°50' W 073°17'0 0.0
2018-Jun-15 19:30N 45°50' W 073°17'0 0.0
2018-Jun-15 19:00N 45°50' W 073°17'0 0.0
2018-Jun-15 18:30N 45°50' W 073°17'0 0.0
2018-Jun-15 18:00N 45°50' W 073°17'0 0.0
2018-Jun-15 17:30N 45°50' W 073°17'0 0.0
2018-Jun-15 17:00N 45°50' W 073°17'0 0.0
2018-Jun-15 16:30N 45°50' W 073°17'0 0.0
2018-Jun-15 16:00N 45°50' W 073°17'0 0.0
2018-Jun-15 15:30N 45°50' W 073°17'0 0.0
2018-Jun-15 15:00N 45°50' W 073°17'0 0.0
2018-Jun-15 14:30N 45°50' W 073°17'0 0.0
2018-Jun-15 14:00N 45°50' W 073°17'0 0.0
2018-Jun-15 13:30N 45°50' W 073°17'0 0.0
2018-Jun-15 13:00N 45°50' W 073°17'0 0.0
2018-Jun-15 12:30N 45°50' W 073°17'0 0.0
2018-Jun-15 12:00N 45°50' W 073°17'0 0.0
2018-Jun-15 11:30N 45°50' W 073°17'0 0.0
2018-Jun-15 11:00N 45°50' W 073°17'0 0.0
2018-Jun-15 10:30N 45°50' W 073°17'0 0.0
2018-Jun-15 10:00N 45°50' W 073°17'0 0.0
2018-Jun-15 09:30N 45°50' W 073°17'0 0.0
2018-Jun-15 09:00N 45°50' W 073°17'0 0.0
2018-Jun-15 08:30N 45°50' W 073°17'0 0.0
2018-Jun-15 08:00N 45°50' W 073°17'0 0.0
2018-Jun-15 07:30N 45°50' W 073°17'0 0.0
2018-Jun-15 07:00N 45°50' W 073°17'0 0.0
2018-Jun-15 06:30N 45°50' W 073°17'0 0.0
2018-Jun-15 06:00N 45°50' W 073°17'0 0.0
2018-Jun-15 05:30N 45°50' W 073°17'0 0.0
2018-Jun-15 05:00N 45°50' W 073°17'0 0.0
2018-Jun-15 04:30N 45°50' W 073°17'0 0.0
2018-Jun-15 04:00N 45°50' W 073°17'0 0.0
2018-Jun-15 03:30N 45°50' W 073°17'0 0.0
2018-Jun-15 03:00N 45°50' W 073°17'0 0.0
2018-Jun-15 02:30N 45°50' W 073°17'0 0.0
2018-Jun-15 02:00N 45°50' W 073°17'0 0.0
2018-Jun-15 01:30N 45°50' W 073°17'0 0.0
2018-Jun-15 01:00N 45°50' W 073°17'0 0.0
2018-Jun-15 00:30N 45°50' W 073°17'0 0.0
2018-Jun-15 00:00N 45°50' W 073°17'0 0.0
2018-Jun-14 23:30N 45°50' W 073°17'0 0.0
2018-Jun-14 23:00N 45°50' W 073°17'0 0.0
2018-Jun-14 22:30N 45°50' W 073°17'0 0.0
2018-Jun-14 22:00N 45°50' W 073°17'0 0.0
2018-Jun-14 21:30N 45°50' W 073°17'0 0.0
2018-Jun-14 21:00N 45°50' W 073°17'0 0.0
2018-Jun-14 20:30N 45°50' W 073°17'0 0.0
2018-Jun-14 20:00N 45°50' W 073°17'0 0.0
2018-Jun-14 19:30N 45°50' W 073°17'0 0.0
2018-Jun-14 19:00N 45°50' W 073°17'0 0.0
2018-Jun-14 18:30N 45°50' W 073°17'0 0.0
2018-Jun-14 18:00N 45°50' W 073°17'0 0.0
2018-Jun-14 17:30N 45°50' W 073°17'0 0.0
2018-Jun-14 17:00N 45°50' W 073°17'0 0.0
2018-Jun-14 16:30N 45°50' W 073°17'0 0.0
2018-Jun-14 16:00N 45°50' W 073°17'0 0.0
2018-Jun-14 15:30N 45°50' W 073°17'0 0.0
2018-Jun-14 15:00N 45°50' W 073°17'0 0.0
2018-Jun-14 14:30N 45°50' W 073°17'0 0.0
2018-Jun-14 14:00N 45°50' W 073°17'0 0.0
2018-Jun-14 13:30N 45°50' W 073°17'0 0.0
2018-Jun-14 13:00N 45°50' W 073°17'0 0.0
2018-Jun-14 12:30N 45°50' W 073°17'0 0.0
2018-Jun-14 12:00N 45°50' W 073°17'0 0.0
2018-Jun-14 11:30N 45°50' W 073°17'0 0.0
2018-Jun-14 11:00N 45°50' W 073°17'  

Dump ship's entire track history